Terminal Aerodrome Forecast
Issued by NWS Cleveland, OH

Home | Current Version | Previous Version | Graphics & Text | Print | Product List | Glossary Off
Versions: 1 2 3 4 5 6 7 8 9 10 11 12 13 14 15 16 17 18 19 20 21 22 23

023
FTUS41 KCLE 231207 AAA
TAFMFD
TAF AMD
KMFD 231207Z 2312/2412 17008KT 3SM -RA BR OVC002
     FM231600 20010G20KT 3SM -RA BR OVC007
     FM232100 23012KT P6SM OVC007
     FM240100 26008KT P6SM OVC007
     FM240800 35004KT P6SM OVC003=

USA.gov is the U.S. government's official web portal to all federal, state and local government web resources and services.